sensor_id;sensor_type;location;lat;lon;timestamp;P1;durP1;ratioP1;P2;durP2;ratioP2
82744;SDS011;72484;50.004;14.356;2023-10-31T00:02:25;11.00;;;4.00;;
82744;SDS011;72484;50.004;14.356;2023-10-31T00:05:43;9.40;;;3.90;;
82744;SDS011;72484;50.004;14.356;2023-10-31T00:09:59;9.30;;;3.90;;
82744;SDS011;72484;50.004;14.356;2023-10-31T00:13:37;9.90;;;4.60;;
82744;SDS011;72484;50.004;14.356;2023-10-31T00:16:57;11.10;;;4.10;;
82744;SDS011;72484;50.004;14.356;2023-10-31T00:20:54;10.30;;;4.90;;
82744;SDS011;72484;50.004;14.356;2023-10-31T00:24:53;10.40;;;4.90;;
82744;SDS011;72484;50.004;14.356;2023-10-31T00:28:52;15.30;;;7.20;;
82744;SDS011;72484;50.004;14.356;2023-10-31T00:33:09;13.00;;;6.10;;
82744;SDS011;72484;50.004;14.356;2023-10-31T00:36:27;11.40;;;5.80;;
82744;SDS011;72484;50.004;14.356;2023-10-31T00:40:43;13.10;;;6.80;;
82744;SDS011;72484;50.004;14.356;2023-10-31T00:44:03;10.70;;;4.60;;
82744;SDS011;72484;50.004;14.356;2023-10-31T00:48:20;9.60;;;3.50;;
82744;SDS011;72484;50.004;14.356;2023-10-31T00:51:57;8.80;;;3.40;;
82744;SDS011;72484;50.004;14.356;2023-10-31T00:55:17;7.70;;;3.20;;
82744;SDS011;72484;50.004;14.356;2023-10-31T00:59:34;8.30;;;2.70;;
82744;SDS011;72484;50.004;14.356;2023-10-31T01:03:12;8.30;;;2.80;;
82744;SDS011;72484;50.004;14.356;2023-10-31T01:06:49;7.00;;;2.70;;
82744;SDS011;72484;50.004;14.356;2023-10-31T01:10:26;8.90;;;3.00;;
82744;SDS011;72484;50.004;14.356;2023-10-31T01:13:47;6.80;;;2.50;;
82744;SDS011;72484;50.004;14.356;2023-10-31T01:17:45;7.80;;;2.70;;
82744;SDS011;72484;50.004;14.356;2023-10-31T01:21:54;9.10;;;3.00;;
82744;SDS011;72484;50.004;14.356;2023-10-31T01:25:21;7.90;;;2.80;;
82744;SDS011;72484;50.004;14.356;2023-10-31T01:29:19;7.70;;;2.90;;
82744;SDS011;72484;50.004;14.356;2023-10-31T01:33:36;7.60;;;2.60;;
82744;SDS011;72484;50.004;14.356;2023-10-31T01:37:13;8.30;;;2.70;;
82744;SDS011;72484;50.004;14.356;2023-10-31T01:40:34;7.30;;;2.50;;
82744;SDS011;72484;50.004;14.356;2023-10-31T01:44:31;6.80;;;2.60;;
82744;SDS011;72484;50.004;14.356;2023-10-31T01:48:30;8.40;;;2.70;;
82744;SDS011;72484;50.004;14.356;2023-10-31T01:52:47;7.30;;;2.60;;
82744;SDS011;72484;50.004;14.356;2023-10-31T01:56:25;9.20;;;3.10;;
82744;SDS011;72484;50.004;14.356;2023-10-31T02:00:04;8.00;;;3.00;;
82744;SDS011;72484;50.004;14.356;2023-10-31T02:03:40;10.50;;;3.20;;
82744;SDS011;72484;50.004;14.356;2023-10-31T02:07:03;10.00;;;3.50;;
82744;SDS011;72484;50.004;14.356;2023-10-31T02:11:21;9.00;;;3.40;;
82744;SDS011;72484;50.004;14.356;2023-10-31T02:15:19;9.50;;;3.30;;
82744;SDS011;72484;50.004;14.356;2023-10-31T02:19:18;9.40;;;3.80;;
82744;SDS011;72484;50.004;14.356;2023-10-31T02:23:16;9.90;;;3.90;;
82744;SDS011;72484;50.004;14.356;2023-10-31T02:27:32;10.30;;;3.60;;
82744;SDS011;72484;50.004;14.356;2023-10-31T02:31:10;9.20;;;3.90;;
82744;SDS011;72484;50.004;14.356;2023-10-31T02:34:49;8.90;;;3.70;;
82744;SDS011;72484;50.004;14.356;2023-10-31T02:38:25;12.00;;;3.60;;
82744;SDS011;72484;50.004;14.356;2023-10-31T02:42:03;8.10;;;3.60;;
82744;SDS011;72484;50.004;14.356;2023-10-31T02:45:25;9.70;;;4.00;;
82744;SDS011;72484;50.004;14.356;2023-10-31T02:49:41;8.80;;;3.80;;
82744;SDS011;72484;50.004;14.356;2023-10-31T02:53:03;9.60;;;4.30;;
82744;SDS011;72484;50.004;14.356;2023-10-31T02:57:33;9.30;;;4.30;;
82744;SDS011;72484;50.004;14.356;2023-10-31T03:00:39;9.10;;;4.40;;
82744;SDS011;72484;50.004;14.356;2023-10-31T03:04:37;9.40;;;4.50;;
82744;SDS011;72484;50.004;14.356;2023-10-31T03:08:35;9.90;;;4.20;;
82744;SDS011;72484;50.004;14.356;2023-10-31T03:12:51;9.00;;;4.30;;
82744;SDS011;72484;50.004;14.356;2023-10-31T03:16:12;10.10;;;4.60;;
82744;SDS011;72484;50.004;14.356;2023-10-31T03:20:28;8.90;;;4.70;;
82744;SDS011;72484;50.004;14.356;2023-10-31T03:24:06;8.90;;;4.20;;
82744;SDS011;72484;50.004;14.356;2023-10-31T03:27:26;8.80;;;4.40;;
82744;SDS011;72484;50.004;14.356;2023-10-31T03:31:52;8.30;;;4.20;;
82744;SDS011;72484;50.004;14.356;2023-10-31T03:35:29;9.10;;;4.40;;
82744;SDS011;72484;50.004;14.356;2023-10-31T03:39:27;8.20;;;4.10;;
82744;SDS011;72484;50.004;14.356;2023-10-31T03:43:43;7.40;;;3.50;;
82744;SDS011;72484;50.004;14.356;2023-10-31T03:47:21;8.10;;;3.60;;
82744;SDS011;72484;50.004;14.356;2023-10-31T03:50:41;7.80;;;3.30;;
82744;SDS011;72484;50.004;14.356;2023-10-31T03:54:57;9.10;;;2.80;;
82744;SDS011;72484;50.004;14.356;2023-10-31T03:58:35;6.50;;;2.50;;
82744;SDS011;72484;50.004;14.356;2023-10-31T04:02:13;8.00;;;2.50;;
82744;SDS011;72484;50.004;14.356;2023-10-31T04:05:50;7.00;;;2.50;;
82744;SDS011;72484;50.004;14.356;2023-10-31T04:09:10;6.30;;;2.10;;
82744;SDS011;72484;50.004;14.356;2023-10-31T04:13:26;8.60;;;2.40;;
82744;SDS011;72484;50.004;14.356;2023-10-31T04:16:46;5.60;;;2.00;;
82744;SDS011;72484;50.004;14.356;2023-10-31T04:20:44;6.10;;;2.20;;
82744;SDS011;72484;50.004;14.356;2023-10-31T04:24:43;6.10;;;2.10;;
82744;SDS011;72484;50.004;14.356;2023-10-31T04:28:42;5.60;;;1.90;;
82744;SDS011;72484;50.004;14.356;2023-10-31T04:32:40;6.10;;;1.90;;
82744;SDS011;72484;50.004;14.356;2023-10-31T04:36:56;5.70;;;1.40;;
82744;SDS011;72484;50.004;14.356;2023-10-31T04:40:16;6.00;;;1.40;;
82744;SDS011;72484;50.004;14.356;2023-10-31T04:44:14;5.20;;;1.30;;
82744;SDS011;72484;50.004;14.356;2023-10-31T04:48:31;5.70;;;1.30;;
82744;SDS011;72484;50.004;14.356;2023-10-31T04:51:52;4.80;;;1.00;;
82744;SDS011;72484;50.004;14.356;2023-10-31T04:55:51;4.80;;;0.90;;
82744;SDS011;72484;50.004;14.356;2023-10-31T04:59:49;4.60;;;0.80;;
82744;SDS011;72484;50.004;14.356;2023-10-31T05:03:49;3.70;;;0.60;;
82744;SDS011;72484;50.004;14.356;2023-10-31T05:07:49;4.50;;;0.70;;
82744;SDS011;72484;50.004;14.356;2023-10-31T05:11:47;4.00;;;0.70;;
82744;SDS011;72484;50.004;14.356;2023-10-31T05:15:45;5.00;;;1.20;;
82744;SDS011;72484;50.004;14.356;2023-10-31T05:20:04;5.80;;;1.60;;
82744;SDS011;72484;50.004;14.356;2023-10-31T05:23:42;7.30;;;1.90;;
82744;SDS011;72484;50.004;14.356;2023-10-31T05:27:19;7.00;;;2.20;;
82744;SDS011;72484;50.004;14.356;2023-10-31T05:30:37;6.60;;;2.00;;
82744;SDS011;72484;50.004;14.356;2023-10-31T05:34:35;8.30;;;2.70;;
82744;SDS011;72484;50.004;14.356;2023-10-31T05:38:34;7.40;;;2.10;;
82744;SDS011;72484;50.004;14.356;2023-10-31T05:42:32;5.10;;;0.90;;
82744;SDS011;72484;50.004;14.356;2023-10-31T05:46:38;4.00;;;0.70;;
82744;SDS011;72484;50.004;14.356;2023-10-31T05:50:09;3.60;;;0.50;;
82744;SDS011;72484;50.004;14.356;2023-10-31T05:54:08;3.70;;;0.50;;
82744;SDS011;72484;50.004;14.356;2023-10-31T05:58:06;4.30;;;0.70;;
82744;SDS011;72484;50.004;14.356;2023-10-31T06:02:04;3.60;;;0.60;;
82744;SDS011;72484;50.004;14.356;2023-10-31T06:06:02;5.40;;;1.00;;
82744;SDS011;72484;50.004;14.356;2023-10-31T06:10:19;3.90;;;0.60;;
82744;SDS011;72484;50.004;14.356;2023-10-31T06:13:39;3.30;;;0.60;;
82744;SDS011;72484;50.004;14.356;2023-10-31T06:23:29;4.70;;;0.50;;
82744;SDS011;72484;50.004;14.356;2023-10-31T06:27:09;4.70;;;0.60;;
82744;SDS011;72484;50.004;14.356;2023-10-31T06:30:45;3.30;;;0.50;;
82744;SDS011;72484;50.004;14.356;2023-10-31T06:34:04;4.70;;;0.60;;
82744;SDS011;72484;50.004;14.356;2023-10-31T06:38:04;3.60;;;0.50;;
82744;SDS011;72484;50.004;14.356;2023-10-31T06:42:22;8.90;;;0.70;;
82744;SDS011;72484;50.004;14.356;2023-10-31T06:45:42;12.20;;;1.20;;
82744;SDS011;72484;50.004;14.356;2023-10-31T06:49:58;3.70;;;0.60;;
82744;SDS011;72484;50.004;14.356;2023-10-31T06:53:36;3.10;;;0.40;;
82744;SDS011;72484;50.004;14.356;2023-10-31T06:56:55;5.30;;;0.60;;
82744;SDS011;72484;50.004;14.356;2023-10-31T07:00:53;3.60;;;0.50;;
82744;SDS011;72484;50.004;14.356;2023-10-31T07:04:54;4.00;;;0.60;;
82744;SDS011;72484;50.004;14.356;2023-10-31T07:08:52;3.70;;;0.60;;
82744;SDS011;72484;50.004;14.356;2023-10-31T07:13:08;3.40;;;0.60;;
82744;SDS011;72484;50.004;14.356;2023-10-31T07:16:48;4.40;;;0.60;;
82744;SDS011;72484;50.004;14.356;2023-10-31T07:20:06;4.20;;;0.60;;
82744;SDS011;72484;50.004;14.356;2023-10-31T07:24:06;4.10;;;0.60;;
82744;SDS011;72484;50.004;14.356;2023-10-31T07:28:23;3.70;;;0.50;;
82744;SDS011;72484;50.004;14.356;2023-10-31T07:31:44;5.00;;;0.70;;
82744;SDS011;72484;50.004;14.356;2023-10-31T07:35:42;5.90;;;1.00;;
82744;SDS011;72484;50.004;14.356;2023-10-31T07:39:58;5.00;;;0.90;;
82744;SDS011;72484;50.004;14.356;2023-10-31T07:43:38;4.80;;;0.90;;
82744;SDS011;72484;50.004;14.356;2023-10-31T07:46:56;4.10;;;0.50;;
82744;SDS011;72484;50.004;14.356;2023-10-31T07:50:54;3.90;;;0.50;;
82744;SDS011;72484;50.004;14.356;2023-10-31T07:54:55;4.60;;;0.80;;
82744;SDS011;72484;50.004;14.356;2023-10-31T07:59:13;4.20;;;0.60;;
82744;SDS011;72484;50.004;14.356;2023-10-31T08:02:50;4.80;;;0.60;;
82744;SDS011;72484;50.004;14.356;2023-10-31T08:06:28;5.20;;;0.90;;
82744;SDS011;72484;50.004;14.356;2023-10-31T08:10:08;4.40;;;0.50;;
82744;SDS011;72484;50.004;14.356;2023-10-31T08:13:26;4.20;;;0.60;;
82744;SDS011;72484;50.004;14.356;2023-10-31T08:17:25;7.60;;;0.80;;
82744;SDS011;72484;50.004;14.356;2023-10-31T08:21:24;4.50;;;0.70;;
82744;SDS011;72484;50.004;14.356;2023-10-31T08:25:28;3.70;;;0.50;;
82744;SDS011;72484;50.004;14.356;2023-10-31T08:29:44;6.50;;;1.20;;
82744;SDS011;72484;50.004;14.356;2023-10-31T08:33:22;3.80;;;0.70;;
82744;SDS011;72484;50.004;14.356;2023-10-31T08:36:59;4.50;;;0.60;;
82744;SDS011;72484;50.004;14.356;2023-10-31T08:40:19;5.00;;;0.90;;
82744;SDS011;72484;50.004;14.356;2023-10-31T08:44:37;4.40;;;0.60;;
82744;SDS011;72484;50.004;14.356;2023-10-31T08:48:14;3.50;;;0.50;;
82744;SDS011;72484;50.004;14.356;2023-10-31T08:51:52;4.30;;;0.50;;
82744;SDS011;72484;50.004;14.356;2023-10-31T08:55:12;4.60;;;0.70;;
82744;SDS011;72484;50.004;14.356;2023-10-31T08:59:29;7.60;;;1.40;;
82744;SDS011;72484;50.004;14.356;2023-10-31T09:03:09;5.30;;;0.70;;
82744;SDS011;72484;50.004;14.356;2023-10-31T09:06:30;5.00;;;0.60;;
82744;SDS011;72484;50.004;14.356;2023-10-31T09:10:04;4.20;;;0.70;;
82744;SDS011;72484;50.004;14.356;2023-10-31T09:14:28;6.20;;;0.90;;
82744;SDS011;72484;50.004;14.356;2023-10-31T09:17:59;4.30;;;0.60;;
82744;SDS011;72484;50.004;14.356;2023-10-31T09:21:20;4.40;;;0.90;;
82744;SDS011;72484;50.004;14.356;2023-10-31T09:25:35;4.00;;;0.60;;
82744;SDS011;72484;50.004;14.356;2023-10-31T09:29:15;4.80;;;0.70;;
82744;SDS011;72484;50.004;14.356;2023-10-31T09:32:33;4.40;;;0.50;;
82744;SDS011;72484;50.004;14.356;2023-10-31T09:36:49;5.60;;;1.10;;
82744;SDS011;72484;50.004;14.356;2023-10-31T09:40:10;5.50;;;0.80;;
82744;SDS011;72484;50.004;14.356;2023-10-31T09:44:08;3.70;;;0.60;;
82744;SDS011;72484;50.004;14.356;2023-10-31T09:48:06;5.00;;;0.70;;
82744;SDS011;72484;50.004;14.356;2023-10-31T09:52:23;7.70;;;2.70;;
82744;SDS011;72484;50.004;14.356;2023-10-31T09:56:00;5.80;;;1.50;;
82744;SDS011;72484;50.004;14.356;2023-10-31T09:59:20;5.10;;;0.70;;
82744;SDS011;72484;50.004;14.356;2023-10-31T10:03:39;4.50;;;0.80;;
82744;SDS011;72484;50.004;14.356;2023-10-31T10:07:16;8.20;;;0.80;;
82744;SDS011;72484;50.004;14.356;2023-10-31T10:10:53;5.00;;;0.70;;
82744;SDS011;72484;50.004;14.356;2023-10-31T10:14:31;3.90;;;0.70;;
82744;SDS011;72484;50.004;14.356;2023-10-31T10:18:08;3.80;;;0.60;;
82744;SDS011;72484;50.004;14.356;2023-10-31T10:21:50;4.30;;;0.70;;
82744;SDS011;72484;50.004;14.356;2023-10-31T10:25:25;4.70;;;1.00;;
82744;SDS011;72484;50.004;14.356;2023-10-31T10:29:01;5.90;;;1.10;;
82744;SDS011;72484;50.004;14.356;2023-10-31T10:32:21;5.50;;;0.90;;
82744;SDS011;72484;50.004;14.356;2023-10-31T10:36:37;4.50;;;0.70;;
82744;SDS011;72484;50.004;14.356;2023-10-31T10:39:57;3.70;;;0.50;;
82744;SDS011;72484;50.004;14.356;2023-10-31T10:44:15;16.00;;;4.20;;
82744;SDS011;72484;50.004;14.356;2023-10-31T10:47:38;14.40;;;3.70;;
82744;SDS011;72484;50.004;14.356;2023-10-31T10:51:32;5.40;;;0.60;;
82744;SDS011;72484;50.004;14.356;2023-10-31T10:55:11;3.70;;;0.60;;
82744;SDS011;72484;50.004;14.356;2023-10-31T10:58:49;5.20;;;0.60;;
82744;SDS011;72484;50.004;14.356;2023-10-31T11:02:05;7.90;;;1.30;;
82744;SDS011;72484;50.004;14.356;2023-10-31T11:06:12;6.90;;;1.50;;
82744;SDS011;72484;50.004;14.356;2023-10-31T11:10:01;8.50;;;1.60;;
82744;SDS011;72484;50.004;14.356;2023-10-31T11:13:39;9.70;;;2.20;;
82744;SDS011;72484;50.004;14.356;2023-10-31T11:17:19;25.10;;;8.80;;
82744;SDS011;72484;50.004;14.356;2023-10-31T11:20:56;8.80;;;2.20;;
82744;SDS011;72484;50.004;14.356;2023-10-31T11:24:33;12.70;;;3.00;;
82744;SDS011;72484;50.004;14.356;2023-10-31T11:27:52;5.90;;;0.90;;
82744;SDS011;72484;50.004;14.356;2023-10-31T11:31:52;25.50;;;7.30;;
82744;SDS011;72484;50.004;14.356;2023-10-31T11:35:52;26.90;;;7.60;;
82744;SDS011;72484;50.004;14.356;2023-10-31T11:40:16;17.70;;;4.90;;
82744;SDS011;72484;50.004;14.356;2023-10-31T11:43:54;6.80;;;1.10;;
82744;SDS011;72484;50.004;14.356;2023-10-31T11:47:53;4.90;;;0.80;;
82744;SDS011;72484;50.004;14.356;2023-10-31T11:52:14;5.20;;;0.70;;
82744;SDS011;72484;50.004;14.356;2023-10-31T11:55:29;4.50;;;0.70;;
82744;SDS011;72484;50.004;14.356;2023-10-31T11:59:29;4.80;;;0.60;;
82744;SDS011;72484;50.004;14.356;2023-10-31T12:03:51;3.70;;;0.60;;
82744;SDS011;72484;50.004;14.356;2023-10-31T12:07:29;5.00;;;0.90;;
82744;SDS011;72484;50.004;14.356;2023-10-31T12:11:08;5.20;;;0.80;;
82744;SDS011;72484;50.004;14.356;2023-10-31T12:14:26;5.30;;;0.90;;
82744;SDS011;72484;50.004;14.356;2023-10-31T12:18:42;4.40;;;0.70;;
82744;SDS011;72484;50.004;14.356;2023-10-31T12:22:02;4.00;;;0.60;;
82744;SDS011;72484;50.004;14.356;2023-10-31T12:26:28;4.60;;;0.60;;
82744;SDS011;72484;50.004;14.356;2023-10-31T12:30:08;4.30;;;0.70;;
82744;SDS011;72484;50.004;14.356;2023-10-31T12:33:43;4.50;;;0.60;;
82744;SDS011;72484;50.004;14.356;2023-10-31T12:37:21;3.40;;;0.60;;
82744;SDS011;72484;50.004;14.356;2023-10-31T12:40:42;6.20;;;1.10;;
82744;SDS011;72484;50.004;14.356;2023-10-31T12:44:42;5.30;;;0.90;;
82744;SDS011;72484;50.004;14.356;2023-10-31T12:49:00;5.00;;;0.70;;
82744;SDS011;72484;50.004;14.356;2023-10-31T12:52:48;5.70;;;0.60;;
82744;SDS011;72484;50.004;14.356;2023-10-31T12:56:37;5.20;;;0.80;;
82744;SDS011;72484;50.004;14.356;2023-10-31T13:00:11;4.40;;;0.60;;
82744;SDS011;72484;50.004;14.356;2023-10-31T13:03:51;5.30;;;0.70;;
82744;SDS011;72484;50.004;14.356;2023-10-31T13:07:26;4.50;;;0.70;;
82744;SDS011;72484;50.004;14.356;2023-10-31T13:11:03;4.40;;;0.70;;
82744;SDS011;72484;50.004;14.356;2023-10-31T13:14:23;4.30;;;0.60;;
82744;SDS011;72484;50.004;14.356;2023-10-31T13:18:41;5.00;;;0.90;;
82744;SDS011;72484;50.004;14.356;2023-10-31T13:22:03;13.30;;;4.80;;
82744;SDS011;72484;50.004;14.356;2023-10-31T13:25:37;12.40;;;3.40;;
82744;SDS011;72484;50.004;14.356;2023-10-31T13:29:52;12.60;;;3.60;;
82744;SDS011;72484;50.004;14.356;2023-10-31T13:33:30;13.00;;;4.10;;
82744;SDS011;72484;50.004;14.356;2023-10-31T13:37:08;12.40;;;3.50;;
82744;SDS011;72484;50.004;14.356;2023-10-31T13:40:45;14.90;;;3.40;;
82744;SDS011;72484;50.004;14.356;2023-10-31T13:44:33;5.60;;;0.90;;
82744;SDS011;72484;50.004;14.356;2023-10-31T13:48:01;10.50;;;2.70;;
82744;SDS011;72484;50.004;14.356;2023-10-31T13:51:39;5.90;;;1.20;;
82744;SDS011;72484;50.004;14.356;2023-10-31T13:54:58;6.60;;;1.50;;
82744;SDS011;72484;50.004;14.356;2023-10-31T13:58:57;5.10;;;0.90;;
82744;SDS011;72484;50.004;14.356;2023-10-31T14:02:59;4.80;;;0.70;;
82744;SDS011;72484;50.004;14.356;2023-10-31T14:07:20;4.70;;;0.70;;
82744;SDS011;72484;50.004;14.356;2023-10-31T14:10:52;4.20;;;0.60;;
82744;SDS011;72484;50.004;14.356;2023-10-31T14:14:12;5.50;;;0.80;;
82744;SDS011;72484;50.004;14.356;2023-10-31T14:18:28;4.30;;;0.80;;
82744;SDS011;72484;50.004;14.356;2023-10-31T14:21:52;3.90;;;0.60;;
82744;SDS011;72484;50.004;14.356;2023-10-31T14:25:26;3.70;;;0.70;;
82744;SDS011;72484;50.004;14.356;2023-10-31T14:29:24;5.70;;;0.70;;
82744;SDS011;72484;50.004;14.356;2023-10-31T14:33:51;6.00;;;0.80;;
82744;SDS011;72484;50.004;14.356;2023-10-31T14:37:38;4.20;;;0.50;;
82744;SDS011;72484;50.004;14.356;2023-10-31T14:41:22;5.20;;;0.70;;
82744;SDS011;72484;50.004;14.356;2023-10-31T14:44:35;4.40;;;0.80;;
82744;SDS011;72484;50.004;14.356;2023-10-31T14:48:51;4.10;;;0.60;;
82744;SDS011;72484;50.004;14.356;2023-10-31T14:52:11;5.40;;;0.70;;
82744;SDS011;72484;50.004;14.356;2023-10-31T14:56:26;4.20;;;0.60;;
82744;SDS011;72484;50.004;14.356;2023-10-31T15:00:06;4.50;;;0.90;;
82744;SDS011;72484;50.004;14.356;2023-10-31T15:03:24;4.50;;;0.80;;
82744;SDS011;72484;50.004;14.356;2023-10-31T15:07:40;5.20;;;0.60;;
82744;SDS011;72484;50.004;14.356;2023-10-31T15:11:00;4.50;;;0.50;;
82744;SDS011;72484;50.004;14.356;2023-10-31T15:14:58;4.60;;;0.50;;
82744;SDS011;72484;50.004;14.356;2023-10-31T15:18:57;6.00;;;0.60;;
82744;SDS011;72484;50.004;14.356;2023-10-31T15:22:56;4.90;;;0.60;;
82744;SDS011;72484;50.004;14.356;2023-10-31T15:26:54;3.80;;;0.70;;
82744;SDS011;72484;50.004;14.356;2023-10-31T15:30:53;4.00;;;0.60;;
82744;SDS011;72484;50.004;14.356;2023-10-31T15:35:09;5.40;;;0.80;;
82744;SDS011;72484;50.004;14.356;2023-10-31T15:38:29;4.40;;;0.70;;
82744;SDS011;72484;50.004;14.356;2023-10-31T15:42:27;6.50;;;0.70;;
82744;SDS011;72484;50.004;14.356;2023-10-31T15:46:43;4.10;;;0.70;;
82744;SDS011;72484;50.004;14.356;2023-10-31T15:50:21;4.90;;;0.80;;
82744;SDS011;72484;50.004;14.356;2023-10-31T15:53:59;5.50;;;0.80;;
82744;SDS011;72484;50.004;14.356;2023-10-31T15:57:18;4.10;;;0.70;;
82744;SDS011;72484;50.004;14.356;2023-10-31T16:01:17;4.30;;;0.90;;
82744;SDS011;72484;50.004;14.356;2023-10-31T16:05:15;4.50;;;0.80;;
82744;SDS011;72484;50.004;14.356;2023-10-31T16:09:13;4.50;;;0.80;;
82744;SDS011;72484;50.004;14.356;2023-10-31T16:13:11;5.00;;;0.90;;
82744;SDS011;72484;50.004;14.356;2023-10-31T16:17:09;5.30;;;1.20;;
82744;SDS011;72484;50.004;14.356;2023-10-31T16:21:14;6.00;;;1.10;;
82744;SDS011;72484;50.004;14.356;2023-10-31T16:25:31;6.10;;;1.50;;
82744;SDS011;72484;50.004;14.356;2023-10-31T16:29:09;7.90;;;2.00;;
82744;SDS011;72484;50.004;14.356;2023-10-31T16:32:29;5.60;;;1.40;;
82744;SDS011;72484;50.004;14.356;2023-10-31T16:36:27;6.10;;;1.30;;
82744;SDS011;72484;50.004;14.356;2023-10-31T16:40:25;6.90;;;1.80;;
82744;SDS011;72484;50.004;14.356;2023-10-31T16:44:23;6.70;;;1.80;;
82744;SDS011;72484;50.004;14.356;2023-10-31T16:48:39;8.60;;;2.10;;
82744;SDS011;72484;50.004;14.356;2023-10-31T16:52:16;8.20;;;3.20;;
82744;SDS011;72484;50.004;14.356;2023-10-31T16:55:36;6.90;;;1.60;;
82744;SDS011;72484;50.004;14.356;2023-10-31T16:59:34;7.50;;;1.50;;
82744;SDS011;72484;50.004;14.356;2023-10-31T17:03:33;6.70;;;1.00;;
82744;SDS011;72484;50.004;14.356;2023-10-31T17:07:31;5.90;;;1.20;;
82744;SDS011;72484;50.004;14.356;2023-10-31T17:11:29;5.10;;;1.10;;
82744;SDS011;72484;50.004;14.356;2023-10-31T17:15:45;5.70;;;1.20;;
82744;SDS011;72484;50.004;14.356;2023-10-31T17:19:29;5.50;;;1.10;;
82744;SDS011;72484;50.004;14.356;2023-10-31T17:23:43;5.20;;;1.00;;
82744;SDS011;72484;50.004;14.356;2023-10-31T17:27:21;5.30;;;1.10;;
82744;SDS011;72484;50.004;14.356;2023-10-31T17:31:19;5.90;;;1.20;;
82744;SDS011;72484;50.004;14.356;2023-10-31T17:35:38;6.20;;;1.10;;
82744;SDS011;72484;50.004;14.356;2023-10-31T17:38:55;5.20;;;1.10;;
82744;SDS011;72484;50.004;14.356;2023-10-31T17:42:52;6.30;;;1.40;;
82744;SDS011;72484;50.004;14.356;2023-10-31T17:47:11;5.80;;;1.20;;
82744;SDS011;72484;50.004;14.356;2023-10-31T17:51:06;5.50;;;1.30;;
82744;SDS011;72484;50.004;14.356;2023-10-31T17:54:26;6.50;;;1.60;;
82744;SDS011;72484;50.004;14.356;2023-10-31T17:58:26;6.30;;;2.00;;
82744;SDS011;72484;50.004;14.356;2023-10-31T18:02:24;5.20;;;1.20;;
82744;SDS011;72484;50.004;14.356;2023-10-31T18:06:41;5.60;;;1.20;;
82744;SDS011;72484;50.004;14.356;2023-10-31T18:10:18;5.70;;;1.10;;
82744;SDS011;72484;50.004;14.356;2023-10-31T18:13:56;5.80;;;1.40;;
82744;SDS011;72484;50.004;14.356;2023-10-31T18:17:16;6.10;;;1.20;;
82744;SDS011;72484;50.004;14.356;2023-10-31T18:21:14;5.20;;;1.40;;
82744;SDS011;72484;50.004;14.356;2023-10-31T18:25:13;5.40;;;1.20;;
82744;SDS011;72484;50.004;14.356;2023-10-31T18:29:12;5.70;;;1.50;;
82744;SDS011;72484;50.004;14.356;2023-10-31T18:33:11;6.30;;;1.80;;
82744;SDS011;72484;50.004;14.356;2023-10-31T18:37:27;6.80;;;1.60;;
82744;SDS011;72484;50.004;14.356;2023-10-31T18:41:05;6.40;;;1.60;;
82744;SDS011;72484;50.004;14.356;2023-10-31T18:44:43;6.10;;;1.80;;
82744;SDS011;72484;50.004;14.356;2023-10-31T18:48:21;5.80;;;1.60;;
82744;SDS011;72484;50.004;14.356;2023-10-31T18:51:58;6.40;;;1.80;;
82744;SDS011;72484;50.004;14.356;2023-10-31T18:55:18;6.70;;;1.60;;
82744;SDS011;72484;50.004;14.356;2023-10-31T18:59:16;5.90;;;1.60;;
82744;SDS011;72484;50.004;14.356;2023-10-31T19:03:32;7.40;;;1.60;;
82744;SDS011;72484;50.004;14.356;2023-10-31T19:07:10;6.00;;;1.50;;
82744;SDS011;72484;50.004;14.356;2023-10-31T19:10:30;6.30;;;1.70;;
82744;SDS011;72484;50.004;14.356;2023-10-31T19:14:29;6.50;;;1.40;;
82744;SDS011;72484;50.004;14.356;2023-10-31T19:18:45;6.30;;;1.60;;
82744;SDS011;72484;50.004;14.356;2023-10-31T19:22:04;6.20;;;1.50;;
82744;SDS011;72484;50.004;14.356;2023-10-31T19:26:20;6.30;;;1.40;;
82744;SDS011;72484;50.004;14.356;2023-10-31T19:30:01;7.40;;;1.70;;
82744;SDS011;72484;50.004;14.356;2023-10-31T19:33:35;7.00;;;1.60;;
82744;SDS011;72484;50.004;14.356;2023-10-31T19:37:13;5.70;;;1.40;;
82744;SDS011;72484;50.004;14.356;2023-10-31T19:40:51;5.70;;;1.60;;
82744;SDS011;72484;50.004;14.356;2023-10-31T19:44:28;6.80;;;1.40;;
82744;SDS011;72484;50.004;14.356;2023-10-31T19:47:48;8.30;;;1.80;;
82744;SDS011;72484;50.004;14.356;2023-10-31T19:52:05;5.70;;;1.50;;
82744;SDS011;72484;50.004;14.356;2023-10-31T19:55:42;5.80;;;1.50;;
82744;SDS011;72484;50.004;14.356;2023-10-31T19:59:02;5.40;;;1.40;;
82744;SDS011;72484;50.004;14.356;2023-10-31T20:03:18;5.80;;;1.60;;
82744;SDS011;72484;50.004;14.356;2023-10-31T20:06:55;6.10;;;1.50;;
82744;SDS011;72484;50.004;14.356;2023-10-31T20:10:15;7.70;;;1.60;;
82744;SDS011;72484;50.004;14.356;2023-10-31T20:19:49;8.00;;;1.90;;
82744;SDS011;72484;50.004;14.356;2023-10-31T20:23:48;7.80;;;2.30;;
82744;SDS011;72484;50.004;14.356;2023-10-31T20:27:46;7.00;;;1.50;;
82744;SDS011;72484;50.004;14.356;2023-10-31T20:32:01;7.70;;;1.90;;
82744;SDS011;72484;50.004;14.356;2023-10-31T20:35:39;7.00;;;1.40;;
82744;SDS011;72484;50.004;14.356;2023-10-31T20:39:17;6.30;;;1.60;;
82744;SDS011;72484;50.004;14.356;2023-10-31T20:42:55;6.20;;;1.30;;
82744;SDS011;72484;50.004;14.356;2023-10-31T20:46:32;7.10;;;1.40;;
82744;SDS011;72484;50.004;14.356;2023-10-31T20:49:53;6.70;;;1.50;;
82744;SDS011;72484;50.004;14.356;2023-10-31T20:53:51;6.20;;;1.50;;
82744;SDS011;72484;50.004;14.356;2023-10-31T20:58:09;9.80;;;1.80;;
82744;SDS011;72484;50.004;14.356;2023-10-31T21:02:04;7.70;;;2.00;;
82744;SDS011;72484;50.004;14.356;2023-10-31T21:05:41;7.00;;;1.40;;
82744;SDS011;72484;50.004;14.356;2023-10-31T21:09:19;7.00;;;1.60;;
82744;SDS011;72484;50.004;14.356;2023-10-31T21:12:57;7.80;;;1.80;;
82744;SDS011;72484;50.004;14.356;2023-10-31T21:16:16;6.60;;;1.70;;
82744;SDS011;72484;50.004;14.356;2023-10-31T21:20:17;7.20;;;1.60;;
82744;SDS011;72484;50.004;14.356;2023-10-31T21:25:15;6.30;;;1.70;;
82744;SDS011;72484;50.004;14.356;2023-10-31T21:29:14;6.30;;;1.70;;
82744;SDS011;72484;50.004;14.356;2023-10-31T21:33:12;6.60;;;1.30;;
82744;SDS011;72484;50.004;14.356;2023-10-31T21:37:10;6.50;;;1.70;;
82744;SDS011;72484;50.004;14.356;2023-10-31T21:41:26;7.70;;;1.90;;
82744;SDS011;72484;50.004;14.356;2023-10-31T21:45:04;6.80;;;2.10;;
82744;SDS011;72484;50.004;14.356;2023-10-31T21:48:23;7.40;;;2.40;;
82744;SDS011;72484;50.004;14.356;2023-10-31T21:52:22;6.20;;;1.40;;
82744;SDS011;72484;50.004;14.356;2023-10-31T21:56:19;7.10;;;1.90;;
82744;SDS011;72484;50.004;14.356;2023-10-31T22:00:35;7.50;;;1.80;;
82744;SDS011;72484;50.004;14.356;2023-10-31T22:03:55;7.80;;;1.70;;
82744;SDS011;72484;50.004;14.356;2023-10-31T22:08:11;7.40;;;1.50;;
82744;SDS011;72484;50.004;14.356;2023-10-31T22:11:49;5.80;;;1.30;;
82744;SDS011;72484;50.004;14.356;2023-10-31T22:15:39;7.30;;;1.50;;
82744;SDS011;72484;50.004;14.356;2023-10-31T22:19:16;9.70;;;2.20;;
82744;SDS011;72484;50.004;14.356;2023-10-31T22:23:14;7.20;;;1.70;;
82744;SDS011;72484;50.004;14.356;2023-10-31T22:27:12;9.00;;;2.00;;
82744;SDS011;72484;50.004;14.356;2023-10-31T22:31:10;7.00;;;1.60;;
82744;SDS011;72484;50.004;14.356;2023-10-31T22:35:08;7.30;;;1.80;;
82744;SDS011;72484;50.004;14.356;2023-10-31T22:39:24;6.90;;;1.70;;
82744;SDS011;72484;50.004;14.356;2023-10-31T22:43:01;7.30;;;1.70;;
82744;SDS011;72484;50.004;14.356;2023-10-31T22:46:21;6.70;;;1.40;;